Scroll down
FLIGHT INFORMATION
Japan Airlines

JAL9515

At Arrival Gate

KPAE
 RJFF
DATE: 2018-09-13
GATE:  -
GATE DEPARTURE: 17:19
TAKEOFF: 17:27
DATE: 2018-09-14
GATE:  -
LANDING: 03:34
GATE ARRIVAL: 03:38
FLIGHT DATA
Crew: 
Speed: 
918 kph
Altitude: 
43,013 ft
Stage Length: 
8,432.4 km
Block Time: 
10.2 hrs
Flight Time: 
10.1 hrs
Fuel Used: 
82,793 kg
Cleared Route: 
TRACK DATA
50,000 ft 1,000 kts
AIRCRAFT INFO AND CUMULATIVE STATS
Aircraft Type: 
B748
Registration: 
SELCAL: 
MSN/LN: 
0 / 1
Operator: 
Total Flights: 
4
Total Block Time: 
39.6 hrs
Total Flight Time: 
38.7 hrs
Total Fuel Used: 
361,788 kg
DATALINK LOG | Newest first | Current as of: 2022-09-30 00:56:12
LABEL SEQUENCE CONTENT Dn/Up
QD380003:38 22.7▼ Dn
QC342303:34▼ Dn
2U1003RJFF 131500Z AUTO 15003KT 9999 NSC 24/22 Q1014 NOSIG▲ Up
2S3020RJFF▼ Dn
QB273117:27▼ Dn
QA195817:19 205.5▼ Dn
2U5255KPAE 130453Z AUTO 17005KT 10SM BKN032 OVC080 14/11 A2995 RMK AO2 SLP141 T01440106▲ Up
2S1305KPAE▼ Dn


AIRCRAFT HISTORY
FLIGHT DATE FLIGHT NO. ORIGIN DESTINATION CLEARED ROUTE BLOCK TIME FLIGHT TIME FUEL USED PILOT
2020-11-06JAL413RJTT KDFW 11 hrs10.7 hrs217,338 lbCharles Harris
2018-11-19JAL880YSSY RJTT MATLA OLTIN SCONB NBRNB HACHI NITTA HM NONIR APISO PY NZ PIKOK NUTTI HUTEL KAPOK ASADE UNZ WINZR TOESS OMLET VASKO TOMOL UKATA CADDY SABRI FITTO BAFFY DIIVA ADDUM9.4 hrs9.1 hrs191,900 lbTom Landry
2018-11-18JAL773RJFF YSSY FF603 YAMGA HKC KINKO TOZAK KAGYA TGE LUKRA KALGU AGIKA MIMOD OLSAK BIXAK CANAI SABGU PAKDO NATSS RIDLL LOEBB HOOVR GALEE FACED KIBAV APUKA MEMIG LOCKA CS SWIFT ALBUX PN NITTA MAGRA MIMMI ROKUU DALAS SCONB CORKY SADLO BOREE9 hrs8.8 hrs205,842 lbTom Landry
2018-09-13JAL9515KPAE RJFF 10.2 hrs10.1 hrs182,526 lbTom Landry